Time;durP1;ratioP1;P1;durP2;ratioP2;P2;SDS_P1;SDS_P2;PMS_P1;PMS_P2;Temp;Humidity;BMP_temperature;BMP_pressure;BME280_temperature;BME280_humidity;BME280_pressure;Samples;Min_cycle;Max_cycle;Signal;HPM_P1;HPM_P2
2023/11/14 00:01:23;;;;;;;27.13;5.63;;;11.50;99.90;;;;;;5033099;28;20048;-59
2023/11/14 00:03:50;;;;;;;35.28;6.65;;;11.40;99.90;;;;;;5032601;28;20049;-59
2023/11/14 00:06:17;;;;;;;31.23;5.90;;;11.40;99.90;;;;;;5015435;28;20403;-60
2023/11/14 00:08:44;;;;;;;32.25;5.40;;;11.40;99.90;;;;;;5032750;28;20069;-60
2023/11/14 00:11:10;;;;;;;32.22;5.78;;;11.40;99.90;;;;;;5032760;28;20037;-67
2023/11/14 00:13:37;;;;;;;32.30;6.30;;;11.40;99.90;;;;;;5015034;28;20127;-65
2023/11/14 00:16:04;;;;;;;34.85;5.97;;;11.40;99.90;;;;;;5033108;28;20475;-61
2023/11/14 00:18:32;;;;;;;34.70;6.65;;;11.50;99.90;;;;;;5014988;28;20095;-58
2023/11/14 00:20:58;;;;;;;30.27;6.57;;;11.40;99.90;;;;;;5032881;28;20069;-58
2023/11/14 00:23:25;;;;;;;29.05;5.70;;;11.50;99.90;;;;;;5032467;28;20068;-59
2023/11/14 00:25:52;;;;;;;32.08;5.63;;;11.50;99.90;;;;;;5035961;28;20041;-59
2023/11/14 00:28:19;;;;;;;36.78;7.28;;;11.40;99.90;;;;;;5035861;28;20542;-59
2023/11/14 00:30:46;;;;;;;33.58;6.40;;;11.40;99.90;;;;;;5036168;28;20049;-59
2023/11/14 00:33:13;;;;;;;30.15;5.82;;;11.40;99.90;;;;;;5036204;28;20068;-59
2023/11/14 00:35:43;;;;;;;32.65;5.90;;;11.40;99.90;;;;;;5036235;28;20045;-59
2023/11/14 00:38:10;;;;;;;33.15;7.63;;;11.40;99.90;;;;;;5017894;28;20132;-59
2023/11/14 00:40:38;;;;;;;36.05;6.32;;;11.40;99.90;;;;;;5035817;28;20490;-59
2023/11/14 00:43:06;;;;;;;32.25;6.22;;;11.40;99.90;;;;;;5035713;28;20554;-59
2023/11/14 00:45:32;;;;;;;31.65;6.03;;;11.40;99.90;;;;;;5017793;28;20041;-66
2023/11/14 00:47:59;;;;;;;33.45;5.95;;;11.40;99.90;;;;;;5017892;28;20487;-66
2023/11/14 00:50:27;;;;;;;23.55;5.25;;;11.40;99.90;;;;;;5017910;28;20085;-66
2023/11/14 00:52:53;;;;;;;27.92;5.28;;;11.40;99.90;;;;;;5017471;28;20052;-66
2023/11/14 00:55:20;;;;;;;33.05;6.03;;;11.40;99.90;;;;;;5035704;28;20107;-66
2023/11/14 00:57:47;;;;;;;31.52;5.25;;;11.40;99.90;;;;;;5017508;28;20148;-66
2023/11/14 01:00:14;;;;;;;34.40;6.53;;;11.50;99.90;;;;;;5035431;28;20098;-66
2023/11/14 01:02:41;;;;;;;30.08;6.40;;;11.50;99.90;;;;;;5035234;28;20050;-65
2023/11/14 01:05:08;;;;;;;32.40;6.03;;;11.50;99.90;;;;;;5017772;28;20386;-58
2023/11/14 01:07:35;;;;;;;36.28;6.15;;;11.40;99.90;;;;;;5018096;28;20049;-59
2023/11/14 01:10:03;;;;;;;35.70;6.82;;;11.50;99.90;;;;;;5017603;28;20068;-59
2023/11/14 01:12:31;;;;;;;29.85;6.40;;;11.40;99.90;;;;;;5035401;28;20048;-58
2023/11/14 01:14:58;;;;;;;39.08;5.85;;;11.40;99.90;;;;;;5035106;28;20041;-58
2023/11/14 01:17:25;;;;;;;31.73;5.57;;;11.40;99.90;;;;;;5035225;28;20041;-58
2023/11/14 01:19:52;;;;;;;29.05;6.70;;;11.40;99.90;;;;;;5035266;28;20120;-59
2023/11/14 01:22:19;;;;;;;33.33;6.53;;;11.40;99.90;;;;;;5035009;28;20144;-59
2023/11/14 01:24:47;;;;;;;31.20;5.72;;;11.40;99.90;;;;;;5017073;28;20042;-59
2023/11/14 01:27:15;;;;;;;30.98;5.50;;;11.40;99.90;;;;;;5035087;28;20429;-59
2023/11/14 01:29:42;;;;;;;29.90;5.15;;;11.40;99.90;;;;;;5034580;28;20133;-59
2023/11/14 01:32:09;;;;;;;33.15;6.20;;;11.40;99.90;;;;;;5017003;28;20045;-59
2023/11/14 01:34:36;;;;;;;38.65;6.43;;;11.30;99.90;;;;;;5035203;28;20072;-59
2023/11/14 01:37:03;;;;;;;31.73;6.72;;;11.30;99.90;;;;;;4999854;28;20095;-58
2023/11/14 01:39:31;;;;;;;31.20;6.10;;;11.30;99.90;;;;;;5034420;28;20041;-58
2023/11/14 01:41:58;;;;;;;34.45;6.68;;;11.30;99.90;;;;;;5034829;28;20354;-65
2023/11/14 01:44:25;;;;;;;27.50;5.63;;;11.30;99.90;;;;;;5034731;28;20049;-67
2023/11/14 01:46:56;;;;;;;35.55;5.88;;;11.30;99.90;;;;;;5035067;28;20033;-67
2023/11/14 01:49:22;;;;;;;29.65;5.78;;;11.30;99.90;;;;;;5016607;28;20127;-67
2023/11/14 01:51:49;;;;;;;35.25;6.78;;;11.30;99.90;;;;;;5034899;28;20038;-67
2023/11/14 01:54:16;;;;;;;38.67;6.50;;;11.30;99.90;;;;;;5034716;28;20124;-66
2023/11/14 01:56:43;;;;;;;28.45;5.22;;;11.30;99.90;;;;;;5034909;28;20438;-66
2023/11/14 01:59:10;;;;;;;37.40;6.38;;;11.30;99.90;;;;;;5016802;28;20073;-66
2023/11/14 02:01:37;;;;;;;34.88;6.50;;;11.30;99.90;;;;;;5016748;28;20048;-66
2023/11/14 02:04:04;;;;;;;36.17;6.40;;;11.30;99.90;;;;;;5033922;28;20103;-65
2023/11/14 02:06:31;;;;;;;31.70;5.95;;;11.20;99.90;;;;;;5034341;28;20159;-65
2023/11/14 02:08:58;;;;;;;36.80;7.45;;;11.20;99.90;;;;;;5016303;28;20128;-65
2023/11/14 02:11:25;;;;;;;30.27;5.85;;;11.20;99.90;;;;;;5034237;28;20037;-65
2023/11/14 02:13:52;;;;;;;33.53;6.43;;;11.20;99.90;;;;;;5033885;28;20099;-65
2023/11/14 02:16:18;;;;;;;28.98;6.10;;;11.20;99.90;;;;;;5033904;28;20084;-66
2023/11/14 02:18:45;;;;;;;38.67;6.10;;;11.20;99.90;;;;;;5015902;28;20049;-65
2023/11/14 02:21:12;;;;;;;34.60;6.25;;;11.20;99.90;;;;;;5016067;28;20448;-66
2023/11/14 02:23:39;;;;;;;33.17;5.68;;;11.20;99.90;;;;;;5016240;28;20051;-65
2023/11/14 02:26:05;;;;;;;32.50;6.20;;;11.10;99.90;;;;;;5033599;28;20044;-65
2023/11/14 02:28:32;;;;;;;35.05;6.28;;;11.10;99.90;;;;;;5033628;28;20044;-66
2023/11/14 02:30:59;;;;;;;35.75;6.15;;;11.10;99.90;;;;;;5034092;28;20117;-66
2023/11/14 02:33:26;;;;;;;32.13;6.45;;;11.10;99.90;;;;;;5033511;28;20049;-66
2023/11/14 02:35:54;;;;;;;32.35;6.47;;;11.10;99.90;;;;;;5033407;28;20045;-64
2023/11/14 02:38:21;;;;;;;28.13;5.97;;;11.10;99.90;;;;;;5015737;28;20042;-66
2023/11/14 02:40:49;;;;;;;30.58;6.10;;;11.10;99.90;;;;;;5033478;28;20056;-66
2023/11/14 02:43:16;;;;;;;34.13;6.15;;;11.10;99.90;;;;;;5015162;28;20057;-66
2023/11/14 02:45:43;;;;;;;33.30;6.25;;;11.10;99.90;;;;;;5015585;28;20042;-59
2023/11/14 02:48:09;;;;;;;40.90;7.13;;;11.10;99.90;;;;;;5032712;28;20041;-58
2023/11/14 02:50:36;;;;;;;34.85;7.38;;;11.10;99.90;;;;;;5033224;28;20041;-59
2023/11/14 02:53:03;;;;;;;35.83;6.03;;;11.10;99.90;;;;;;5033545;28;20033;-59
2023/11/14 02:55:30;;;;;;;34.70;5.90;;;11.10;99.90;;;;;;5033459;28;20046;-59
2023/11/14 02:57:57;;;;;;;36.90;6.82;;;11.10;99.90;;;;;;5032919;28;20080;-66
2023/11/14 03:00:24;;;;;;;33.85;5.85;;;11.10;99.90;;;;;;5033254;28;20046;-62
2023/11/14 03:02:51;;;;;;;37.67;6.40;;;11.00;99.90;;;;;;5015844;28;20364;-59
2023/11/14 03:05:18;;;;;;;38.08;6.40;;;11.10;99.90;;;;;;5033213;28;20116;-66
2023/11/14 03:07:46;;;;;;;27.08;5.80;;;11.10;99.90;;;;;;5032762;28;20038;-66
2023/11/14 03:10:14;;;;;;;34.00;6.22;;;11.10;99.90;;;;;;5015643;28;20078;-58
2023/11/14 03:12:40;;;;;;;33.08;6.90;;;11.10;99.90;;;;;;5032976;28;20050;-58
2023/11/14 03:15:07;;;;;;;42.65;6.88;;;11.10;99.90;;;;;;5033276;28;20045;-59
2023/11/14 03:17:36;;;;;;;33.33;6.95;;;11.10;99.90;;;;;;5015399;28;20050;-58
2023/11/14 03:20:03;;;;;;;32.40;5.53;;;11.10;99.90;;;;;;5033088;28;20045;-59
2023/11/14 03:22:30;;;;;;;31.42;6.75;;;11.20;99.90;;;;;;5015133;28;20441;-58
2023/11/14 03:24:57;;;;;;;37.50;6.82;;;11.20;99.90;;;;;;5032750;28;20403;-58
2023/11/14 03:27:24;;;;;;;37.65;6.13;;;11.10;99.90;;;;;;5015056;28;20045;-58
2023/11/14 03:29:50;;;;;;;40.88;7.13;;;11.10;99.90;;;;;;5032757;28;20439;-59
2023/11/14 03:32:18;;;;;;;36.05;5.70;;;11.20;99.90;;;;;;5033036;28;20048;-59
2023/11/14 03:34:45;;;;;;;33.67;6.45;;;11.20;99.90;;;;;;5032663;28;20075;-58
2023/11/14 03:37:13;;;;;;;40.05;6.68;;;11.20;99.90;;;;;;5015383;28;20049;-59
2023/11/14 03:39:39;;;;;;;40.80;6.57;;;11.20;99.90;;;;;;5032424;28;20410;-59
2023/11/14 03:42:06;;;;;;;34.95;5.65;;;11.10;99.90;;;;;;5033223;28;20120;-58
2023/11/14 03:44:33;;;;;;;32.83;6.50;;;11.10;99.90;;;;;;5014643;28;20053;-59
2023/11/14 03:47:00;;;;;;;37.70;6.78;;;11.10;99.90;;;;;;5033173;28;20048;-58
2023/11/14 03:49:26;;;;;;;32.35;5.78;;;11.20;99.90;;;;;;5015060;28;20459;-59
2023/11/14 03:51:54;;;;;;;36.20;7.20;;;11.20;99.90;;;;;;5032629;28;20392;-58
2023/11/14 03:54:21;;;;;;;38.90;6.60;;;11.30;99.90;;;;;;5033253;28;20049;-59
2023/11/14 03:56:48;;;;;;;26.10;5.63;;;11.30;99.90;;;;;;5033109;28;20041;-59
2023/11/14 03:59:15;;;;;;;36.83;6.13;;;11.30;99.90;;;;;;5016124;28;20402;-59
2023/11/14 04:01:42;;;;;;;36.83;6.57;;;11.20;99.90;;;;;;5018813;28;20073;-58
2023/11/14 04:04:09;;;;;;;36.30;7.45;;;11.30;99.90;;;;;;5036680;28;20433;-58
2023/11/14 04:06:35;;;;;;;36.10;6.78;;;11.30;99.90;;;;;;5018625;28;20041;-58
2023/11/14 04:09:02;;;;;;;35.90;6.25;;;11.30;99.90;;;;;;5036300;28;20041;-59
2023/11/14 04:11:29;;;;;;;32.75;5.57;;;11.20;99.90;;;;;;5018616;28;20049;-59
2023/11/14 04:13:56;;;;;;;30.75;6.10;;;11.20;99.90;;;;;;5036521;28;20048;-58
2023/11/14 04:16:23;;;;;;;42.75;7.03;;;11.30;99.90;;;;;;5036552;28;20080;-58
2023/11/14 04:18:50;;;;;;;34.03;5.90;;;11.30;99.90;;;;;;5018281;28;20087;-59
2023/11/14 04:21:20;;;;;;;35.10;5.85;;;11.30;99.90;;;;;;5036575;28;20156;-59
2023/11/14 04:23:46;;;;;;;34.85;6.30;;;11.30;99.90;;;;;;5035965;28;20042;-59
2023/11/14 04:26:14;;;;;;;31.60;5.70;;;11.30;99.90;;;;;;5018156;28;20445;-58
2023/11/14 04:28:42;;;;;;;32.78;5.63;;;11.40;99.90;;;;;;5035870;28;20045;-59
2023/11/14 04:31:08;;;;;;;30.15;5.88;;;11.40;99.90;;;;;;5030229;28;20038;-58
2023/11/14 04:33:35;;;;;;;25.90;5.90;;;11.40;99.90;;;;;;4995388;28;20085;-59
2023/11/14 04:36:03;;;;;;;27.95;6.65;;;11.50;99.90;;;;;;4996622;28;20068;-59
2023/11/14 04:38:30;;;;;;;37.80;6.28;;;11.40;99.90;;;;;;4996680;28;20459;-58
2023/11/14 04:40:56;;;;;;;35.63;7.18;;;11.40;99.90;;;;;;4996455;28;20050;-58
2023/11/14 04:43:24;;;;;;;31.83;5.97;;;11.40;99.90;;;;;;4996174;28;20061;-58
2023/11/14 04:45:50;;;;;;;37.15;6.22;;;11.40;99.90;;;;;;4996577;28;20042;-59
2023/11/14 04:48:17;;;;;;;28.52;6.25;;;11.40;99.90;;;;;;4996152;28;20047;-65
2023/11/14 04:50:44;;;;;;;30.65;6.30;;;11.40;99.90;;;;;;4996601;28;20048;-66
2023/11/14 04:53:11;;;;;;;32.75;6.50;;;11.40;99.90;;;;;;4996349;28;20121;-66
2023/11/14 04:55:38;;;;;;;37.47;6.85;;;11.40;99.90;;;;;;4996349;28;20054;-66
2023/11/14 04:58:05;;;;;;;29.48;5.85;;;11.40;99.90;;;;;;4996300;28;20038;-65
2023/11/14 05:00:32;;;;;;;28.95;4.93;;;11.50;99.90;;;;;;4995989;28;20125;-66
2023/11/14 05:03:04;;;;;;;30.08;5.35;;;11.40;99.90;;;;;;4995670;28;20042;-66
2023/11/14 05:05:32;;;;;;;33.80;6.00;;;11.40;99.90;;;;;;4996306;28;20061;-66
2023/11/14 05:07:58;;;;;;;34.50;6.07;;;11.40;99.90;;;;;;4995871;28;20403;-66
2023/11/14 05:10:25;;;;;;;33.85;6.47;;;11.40;99.90;;;;;;4994687;28;20101;-66
2023/11/14 05:12:52;;;;;;;35.13;5.80;;;11.40;99.90;;;;;;4996413;28;20142;-58
2023/11/14 05:15:19;;;;;;;29.15;5.28;;;11.40;99.90;;;;;;4996143;28;20125;-57
2023/11/14 05:17:46;;;;;;;36.40;5.93;;;11.30;99.90;;;;;;4995451;28;20050;-58
2023/11/14 05:20:13;;;;;;;34.78;5.70;;;11.30;99.90;;;;;;4994322;28;20581;-60
2023/11/14 05:22:40;;;;;;;36.70;6.55;;;11.30;99.90;;;;;;4995818;28;20038;-58
2023/11/14 05:25:10;;;;;;;33.00;5.78;;;11.30;99.90;;;;;;4995983;28;20045;-58
2023/11/14 05:27:36;;;;;;;40.45;5.80;;;11.30;99.90;;;;;;4995985;28;20038;-57
2023/11/14 05:30:03;;;;;;;31.33;6.00;;;11.30;99.90;;;;;;4996107;28;20038;-58
2023/11/14 05:32:30;;;;;;;32.60;5.90;;;11.30;99.90;;;;;;4995998;28;20440;-60
2023/11/14 05:34:57;;;;;;;34.78;7.05;;;11.30;99.90;;;;;;4995508;28;20068;-59
2023/11/14 05:37:24;;;;;;;29.17;5.70;;;11.30;99.90;;;;;;4995178;28;20089;-59
2023/11/14 05:39:51;;;;;;;39.47;6.72;;;11.30;99.90;;;;;;4995079;28;20057;-59
2023/11/14 05:42:18;;;;;;;34.58;6.28;;;11.20;99.90;;;;;;4995771;28;20042;-59
2023/11/14 05:44:44;;;;;;;43.53;8.18;;;11.20;99.90;;;;;;4994832;28;20105;-60
2023/11/14 05:47:14;;;;;;;36.70;6.32;;;11.20;99.90;;;;;;4995588;28;20038;-59
2023/11/14 05:49:40;;;;;;;45.20;6.95;;;11.20;99.90;;;;;;4994927;28;20538;-59
2023/11/14 05:52:07;;;;;;;34.78;6.68;;;11.20;99.90;;;;;;4995219;28;20511;-59
2023/11/14 05:54:34;;;;;;;36.65;6.60;;;11.30;99.90;;;;;;4995144;28;20133;-59
2023/11/14 05:57:04;;;;;;;35.28;6.30;;;11.30;99.90;;;;;;4995493;28;20480;-66
2023/11/14 05:59:31;;;;;;;33.92;6.90;;;11.30;99.90;;;;;;4994727;28;20485;-66
2023/11/14 06:01:57;;;;;;;36.75;7.05;;;11.40;99.90;;;;;;4995258;28;20054;-66
2023/11/14 06:04:24;;;;;;;37.65;6.65;;;11.40;99.90;;;;;;4993795;28;20101;-66
2023/11/14 06:06:56;;;;;;;40.35;6.68;;;11.40;99.90;;;;;;4995590;28;20050;-67
2023/11/14 06:09:23;;;;;;;47.08;7.28;;;11.40;99.90;;;;;;4995221;28;20047;-66
2023/11/14 06:11:50;;;;;;;39.15;6.57;;;11.40;99.90;;;;;;4995439;28;20042;-66
2023/11/14 06:14:17;;;;;;;37.10;6.70;;;11.40;99.90;;;;;;4994912;28;20049;-66
2023/11/14 06:16:44;;;;;;;35.55;7.13;;;11.30;99.90;;;;;;4995058;28;20046;-67
2023/11/14 06:19:11;;;;;;;31.23;6.32;;;11.30;99.90;;;;;;4995218;28;20443;-66
2023/11/14 06:21:38;;;;;;;38.50;6.65;;;11.30;99.90;;;;;;4994255;28;20125;-67
2023/11/14 06:24:04;;;;;;;36.15;6.50;;;11.30;99.90;;;;;;4995424;28;20050;-66
2023/11/14 06:26:31;;;;;;;39.15;6.40;;;11.20;99.90;;;;;;4995239;28;20046;-66
2023/11/14 06:28:58;;;;;;;35.55;5.85;;;11.20;99.90;;;;;;4995095;28;20044;-66
2023/11/14 06:31:25;;;;;;;40.33;7.25;;;11.20;99.90;;;;;;4995045;28;20038;-67
2023/11/14 06:33:52;;;;;;;38.33;7.05;;;11.20;99.90;;;;;;4994965;28;20042;-67
2023/11/14 06:36:20;;;;;;;37.80;6.47;;;11.20;99.90;;;;;;4993741;28;20443;-67
2023/11/14 06:38:47;;;;;;;41.53;8.23;;;11.20;99.90;;;;;;4994677;28;20415;-66
2023/11/14 06:41:14;;;;;;;35.60;6.38;;;11.20;99.90;;;;;;4994904;28;20046;-66
2023/11/14 06:43:41;;;;;;;33.50;6.13;;;11.10;99.90;;;;;;4994392;28;20088;-66
2023/11/14 06:46:08;;;;;;;36.28;6.55;;;11.10;99.90;;;;;;4994532;28;20506;-66
2023/11/14 06:48:35;;;;;;;32.50;6.45;;;11.10;99.90;;;;;;4994625;28;20038;-66
2023/11/14 06:51:02;;;;;;;35.88;5.95;;;11.10;99.90;;;;;;4994725;28;20034;-66
2023/11/14 06:53:29;;;;;;;34.55;6.20;;;11.10;99.90;;;;;;4994936;28;20096;-66
2023/11/14 06:55:55;;;;;;;40.92;7.40;;;11.10;99.90;;;;;;4993245;28;20176;-66
2023/11/14 06:58:22;;;;;;;33.40;6.13;;;11.10;99.90;;;;;;4994229;28;20050;-66
2023/11/14 07:00:50;;;;;;;30.05;6.10;;;11.10;99.90;;;;;;4994432;28;20038;-66
2023/11/14 07:03:17;;;;;;;35.97;6.13;;;11.10;99.90;;;;;;4994524;28;20046;-66
2023/11/14 07:05:44;;;;;;;39.28;6.57;;;11.10;99.90;;;;;;4993983;28;20046;-66
2023/11/14 07:08:11;;;;;;;39.03;6.85;;;11.00;99.90;;;;;;4994510;28;20041;-66
2023/11/14 07:10:38;;;;;;;37.70;6.50;;;11.00;99.90;;;;;;4994038;28;20073;-66
2023/11/14 07:13:05;;;;;;;32.38;7.07;;;11.00;99.90;;;;;;4994224;28;20038;-66
2023/11/14 07:15:32;;;;;;;38.45;7.05;;;11.10;99.90;;;;;;4994036;28;20402;-66
2023/11/14 07:18:01;;;;;;;44.60;6.93;;;11.10;99.90;;;;;;4994301;28;20467;-66
2023/11/14 07:20:28;;;;;;;36.67;6.93;;;11.10;99.90;;;;;;4997100;28;20507;-66
2023/11/14 07:22:56;;;;;;;39.78;6.65;;;11.10;99.90;;;;;;5013508;28;20056;-66
2023/11/14 07:25:23;;;;;;;43.97;7.32;;;11.10;99.90;;;;;;5013918;28;20384;-67
2023/11/14 07:27:51;;;;;;;34.10;6.68;;;11.10;99.90;;;;;;5013367;28;20037;-59
2023/11/14 07:30:18;;;;;;;46.35;6.65;;;11.00;99.90;;;;;;5013881;28;20120;-59
2023/11/14 07:32:45;;;;;;;34.97;6.75;;;11.00;99.90;;;;;;5013606;28;20068;-59
2023/11/14 07:35:12;;;;;;;38.20;7.10;;;11.10;99.90;;;;;;5016402;28;20052;-59
2023/11/14 07:37:39;;;;;;;38.50;7.18;;;11.00;99.90;;;;;;5017359;28;20034;-59
2023/11/14 07:40:06;;;;;;;40.55;6.03;;;11.00;99.90;;;;;;5017778;28;20542;-58
2023/11/14 07:42:33;;;;;;;35.33;6.28;;;11.10;99.90;;;;;;5017615;28;20483;-60
2023/11/14 07:45:00;;;;;;;35.15;7.00;;;11.10;99.90;;;;;;5017484;28;20483;-59
2023/11/14 07:47:28;;;;;;;38.80;6.80;;;11.10;99.90;;;;;;5017247;28;20122;-59
2023/11/14 07:49:55;;;;;;;34.22;6.63;;;11.10;99.90;;;;;;5017125;28;20065;-59
2023/11/14 07:52:22;;;;;;;30.00;6.38;;;11.10;99.90;;;;;;5017026;28;20041;-59
2023/11/14 07:54:49;;;;;;;40.58;7.28;;;11.20;99.90;;;;;;5017348;28;20038;-58
2023/11/14 07:57:16;;;;;;;40.15;7.03;;;11.20;99.90;;;;;;5017533;28;20042;-59
2023/11/14 07:59:43;;;;;;;39.88;7.43;;;11.20;99.90;;;;;;5016960;28;20045;-59
2023/11/14 08:02:11;;;;;;;40.35;6.60;;;11.30;99.90;;;;;;5017604;28;20037;-59
2023/11/14 08:04:38;;;;;;;38.72;7.18;;;11.30;99.90;;;;;;5017156;28;20046;-59
2023/11/14 08:07:07;;;;;;;38.67;7.30;;;11.40;99.90;;;;;;5016869;28;20442;-58
2023/11/14 08:09:34;;;;;;;37.65;8.63;;;11.40;99.90;;;;;;5015069;28;20041;-59
2023/11/14 08:12:01;;;;;;;38.20;6.22;;;11.40;99.90;;;;;;5028910;28;20038;-59
2023/11/14 08:14:28;;;;;;;36.65;7.85;;;11.50;99.90;;;;;;5012596;28;20041;-59
2023/11/14 08:16:54;;;;;;;41.13;8.82;;;11.50;99.90;;;;;;5014501;28;20111;-59
2023/11/14 08:19:23;;;;;;;33.47;7.13;;;11.60;99.90;;;;;;4997287;28;20041;-65
2023/11/14 08:21:50;;;;;;;41.53;7.60;;;11.60;99.90;;;;;;5016268;28;20476;-64
2023/11/14 08:24:18;;;;;;;45.33;7.72;;;11.70;99.90;;;;;;5016218;28;20072;-64
2023/11/14 08:26:46;;;;;;;39.22;7.40;;;11.70;99.90;;;;;;5015992;28;20037;-64
2023/11/14 08:29:12;;;;;;;39.42;7.82;;;11.70;99.90;;;;;;5015631;28;20038;-64
2023/11/14 08:31:39;;;;;;;36.20;7.25;;;11.80;99.90;;;;;;5015387;28;20042;-64
2023/11/14 08:34:08;;;;;;;41.05;7.72;;;11.80;99.90;;;;;;5015831;28;20360;-64
2023/11/14 08:36:35;;;;;;;40.17;7.18;;;11.80;99.90;;;;;;5015768;28;20562;-65
2023/11/14 08:39:02;;;;;;;38.17;6.78;;;11.90;99.90;;;;;;5015234;28;20041;-65
2023/11/14 08:41:28;;;;;;;38.20;6.28;;;11.90;99.90;;;;;;5015825;28;20136;-64
2023/11/14 08:43:56;;;;;;;38.88;9.35;;;11.90;99.90;;;;;;5015432;28;20062;-64
2023/11/14 08:46:24;;;;;;;36.33;6.40;;;12.00;99.90;;;;;;4998637;28;20049;-65
2023/11/14 08:48:52;;;;;;;41.30;7.20;;;12.00;99.90;;;;;;5015309;28;20494;-64
2023/11/14 08:51:20;;;;;;;35.47;7.15;;;12.00;99.90;;;;;;5015576;28;20048;-64
2023/11/14 08:53:47;;;;;;;41.38;8.35;;;12.00;99.90;;;;;;5015360;28;20049;-64
2023/11/14 08:56:13;;;;;;;34.15;7.07;;;12.00;99.90;;;;;;5015399;28;20420;-64
2023/11/14 08:58:40;;;;;;;40.28;8.02;;;12.00;99.90;;;;;;5014921;28;20044;-64
2023/11/14 09:01:07;;;;;;;35.88;7.32;;;12.10;99.90;;;;;;5015173;28;20462;-64
2023/11/14 09:03:34;;;;;;;45.55;8.02;;;12.10;99.90;;;;;;5015484;28;20081;-64
2023/11/14 09:06:01;;;;;;;37.60;7.15;;;12.10;99.90;;;;;;5015214;28;20133;-64
2023/11/14 09:08:28;;;;;;;40.38;7.72;;;12.10;99.90;;;;;;5015125;28;20044;-63
2023/11/14 09:10:55;;;;;;;40.25;8.40;;;12.10;99.90;;;;;;5015145;28;20034;-63
2023/11/14 09:13:21;;;;;;;38.45;8.38;;;12.10;99.90;;;;;;5015274;28;20038;-65
2023/11/14 09:15:48;;;;;;;37.30;7.20;;;12.20;99.90;;;;;;4997373;28;20054;-65
2023/11/14 09:18:15;;;;;;;38.20;7.53;;;12.20;99.90;;;;;;5015081;28;20080;-63
2023/11/14 09:20:43;;;;;;;35.10;6.72;;;12.20;99.90;;;;;;5014749;28;20117;-65
2023/11/14 09:23:10;;;;;;;32.22;6.70;;;12.20;99.90;;;;;;5015021;28;20380;-64
2023/11/14 09:25:36;;;;;;;36.90;6.93;;;12.20;99.90;;;;;;5014825;28;20127;-63
2023/11/14 09:28:03;;;;;;;38.55;7.18;;;12.20;99.90;;;;;;5015108;28;20104;-64
2023/11/14 09:30:30;;;;;;;42.13;7.38;;;12.20;99.90;;;;;;5011459;28;20116;-64
2023/11/14 09:32:57;;;;;;;36.83;7.43;;;12.20;99.90;;;;;;5014826;28;20068;-64
2023/11/14 09:35:24;;;;;;;37.58;7.35;;;12.20;99.90;;;;;;5012148;28;20372;-64
2023/11/14 09:37:51;;;;;;;41.45;8.18;;;12.20;99.90;;;;;;5013763;28;20034;-64
2023/11/14 09:40:17;;;;;;;36.70;6.82;;;12.30;99.90;;;;;;5013439;28;20050;-63
2023/11/14 09:42:44;;;;;;;36.28;6.95;;;12.30;99.90;;;;;;5014291;28;20038;-62
2023/11/14 09:45:12;;;;;;;37.83;7.20;;;12.30;99.90;;;;;;5013741;28;20121;-65
2023/11/14 09:47:39;;;;;;;34.03;6.13;;;12.30;99.90;;;;;;5014249;28;20213;-64
2023/11/14 09:50:07;;;;;;;32.15;6.32;;;12.30;99.90;;;;;;5014771;28;20419;-64
2023/11/14 09:52:34;;;;;;;41.40;7.50;;;12.30;99.90;;;;;;5012795;28;20045;-64
2023/11/14 09:55:01;;;;;;;35.03;6.38;;;12.30;99.90;;;;;;4996612;28;20054;-65
2023/11/14 09:57:27;;;;;;;37.22;6.10;;;12.30;99.90;;;;;;5013441;28;20494;-64
2023/11/14 09:59:54;;;;;;;28.20;6.32;;;12.30;99.90;;;;;;5014642;28;20056;-64
2023/11/14 10:02:21;;;;;;;34.47;7.93;;;12.40;99.90;;;;;;4996885;28;20053;-64
2023/11/14 10:04:50;;;;;;;41.88;8.93;;;12.40;99.90;;;;;;5014454;28;20038;-63
2023/11/14 10:07:27;;;;;;;34.38;6.95;;;12.40;99.90;;;;;;5011224;28;20140;-64
2023/11/14 10:09:56;;;;;;;34.72;10.27;;;12.40;99.90;;;;;;5011673;28;20046;-63
2023/11/14 10:12:22;;;;;;;35.22;8.18;;;12.40;99.90;;;;;;5013427;28;20064;-63
2023/11/14 10:14:51;;;;;;;33.03;7.95;;;12.40;99.90;;;;;;5014216;28;20398;-64
2023/11/14 10:17:19;;;;;;;33.67;7.15;;;12.40;99.90;;;;;;5014058;28;20045;-64
2023/11/14 10:19:46;;;;;;;33.55;6.63;;;12.50;99.90;;;;;;5013573;28;20054;-65
2023/11/14 10:22:13;;;;;;;33.13;6.78;;;12.40;99.90;;;;;;5013926;28;20046;-65
2023/11/14 10:24:40;;;;;;;39.28;12.23;;;12.50;99.90;;;;;;4996132;28;20050;-64
2023/11/14 10:27:08;;;;;;;33.38;8.10;;;12.50;99.90;;;;;;5013895;28;20088;-65
2023/11/14 10:29:35;;;;;;;38.50;7.70;;;12.50;99.90;;;;;;5013693;28;20434;-64
2023/11/14 10:32:02;;;;;;;34.00;7.00;;;12.50;99.90;;;;;;5028626;28;20407;-65
2023/11/14 10:34:29;;;;;;;32.88;6.13;;;12.50;99.90;;;;;;5013802;28;20402;-65
2023/11/14 10:36:56;;;;;;;36.38;6.88;;;12.50;99.90;;;;;;5013297;28;20235;-65
2023/11/14 10:39:23;;;;;;;39.15;6.78;;;12.60;99.90;;;;;;5013660;28;20046;-65
2023/11/14 10:41:50;;;;;;;33.88;7.57;;;12.60;99.90;;;;;;5013426;28;20483;-65
2023/11/14 10:44:17;;;;;;;41.42;7.45;;;12.60;99.90;;;;;;5013322;28;20050;-65
2023/11/14 10:46:44;;;;;;;42.58;7.70;;;12.60;99.90;;;;;;5013494;28;20048;-66
2023/11/14 10:49:11;;;;;;;37.15;7.45;;;12.70;99.90;;;;;;5013153;28;20030;-65
2023/11/14 10:51:38;;;;;;;37.78;8.02;;;12.70;99.90;;;;;;5013538;28;20121;-65
2023/11/14 10:54:06;;;;;;;38.53;7.07;;;12.70;99.90;;;;;;5013615;28;20038;-66
2023/11/14 10:56:33;;;;;;;52.15;8.73;;;12.70;99.90;;;;;;5013135;28;20100;-65
2023/11/14 10:59:12;;;;;;;43.75;7.97;;;12.60;99.90;;;;;;5011995;28;20112;-66
2023/11/14 11:01:39;;;;;;;45.13;8.27;;;12.60;99.90;;;;;;5006202;28;20037;-65
2023/11/14 11:04:06;;;;;;;39.42;7.53;;;12.60;99.90;;;;;;5013102;28;20046;-65
2023/11/14 11:06:33;;;;;;;43.08;8.10;;;12.60;99.90;;;;;;5012902;28;20088;-65
2023/11/14 11:09:00;;;;;;;47.08;8.93;;;12.60;99.90;;;;;;5012679;28;20117;-65
2023/11/14 11:11:28;;;;;;;39.97;7.43;;;12.60;99.90;;;;;;5013083;28;20499;-66
2023/11/14 11:13:55;;;;;;;45.90;8.20;;;12.60;99.90;;;;;;5012762;28;20450;-64
2023/11/14 11:16:23;;;;;;;38.83;8.45;;;12.60;99.90;;;;;;5013163;28;20054;-65
2023/11/14 11:18:50;;;;;;;42.50;8.38;;;12.50;99.90;;;;;;5013013;28;20621;-66
2023/11/14 11:21:17;;;;;;;40.50;8.60;;;12.50;99.90;;;;;;5013144;28;20046;-65
2023/11/14 11:23:43;;;;;;;44.40;9.00;;;12.50;99.90;;;;;;5013009;28;20045;-65
2023/11/14 11:26:10;;;;;;;50.85;8.80;;;12.50;99.90;;;;;;5013192;28;20069;-65
2023/11/14 11:28:39;;;;;;;44.33;8.70;;;12.40;99.90;;;;;;5012683;28;20041;-65
2023/11/14 11:31:06;;;;;;;48.75;9.02;;;12.40;99.90;;;;;;5012921;28;20041;-65
2023/11/14 11:33:33;;;;;;;48.53;8.18;;;12.40;99.90;;;;;;5012496;28;20065;-66
2023/11/14 11:36:00;;;;;;;44.00;9.38;;;12.30;99.90;;;;;;5012788;28;20125;-66
2023/11/14 11:38:26;;;;;;;43.63;7.43;;;12.30;99.90;;;;;;5012778;28;20045;-67
2023/11/14 11:40:53;;;;;;;41.50;7.75;;;12.20;99.90;;;;;;5027895;28;20410;-67
2023/11/14 11:43:20;;;;;;;32.55;6.95;;;12.10;99.90;;;;;;5012716;28;20050;-67
2023/11/14 11:45:49;;;;;;;41.60;7.43;;;12.00;99.90;;;;;;5012601;28;20038;-68
2023/11/14 11:48:16;;;;;;;29.23;5.65;;;12.00;99.90;;;;;;5012759;28;20048;-67
2023/11/14 11:50:44;;;;;;;31.00;6.70;;;11.90;99.90;;;;;;5012776;28;20044;-67
2023/11/14 11:53:11;;;;;;;27.95;6.70;;;11.90;99.90;;;;;;5012864;28;20112;-67
2023/11/14 11:55:39;;;;;;;34.75;6.43;;;11.90;99.90;;;;;;5012466;28;20061;-68
2023/11/14 11:58:08;;;;;;;28.20;7.20;;;11.90;99.90;;;;;;5012721;28;20069;-67
2023/11/14 12:00:35;;;;;;;35.70;6.35;;;11.80;99.90;;;;;;5027281;28;20049;-67
2023/11/14 12:03:02;;;;;;;25.10;6.35;;;11.80;99.90;;;;;;5012540;28;20046;-67
2023/11/14 12:05:29;;;;;;;23.63;5.05;;;11.80;99.90;;;;;;5012215;28;20128;-67
2023/11/14 12:07:56;;;;;;;21.33;5.30;;;11.70;99.90;;;;;;5012805;28;20209;-67
2023/11/14 12:10:24;;;;;;;23.27;5.22;;;11.70;99.90;;;;;;5012250;28;20507;-67
2023/11/14 12:12:51;;;;;;;20.23;4.57;;;11.60;99.90;;;;;;5012966;28;20443;-67
2023/11/14 12:15:22;;;;;;;18.42;4.45;;;11.60;99.90;;;;;;5012565;28;20062;-68
2023/11/14 12:17:50;;;;;;;21.95;4.63;;;11.50;99.90;;;;;;5012681;28;20045;-68
2023/11/14 12:20:17;;;;;;;19.33;4.40;;;11.40;99.90;;;;;;5013838;28;20418;-68
2023/11/14 12:22:46;;;;;;;16.40;4.00;;;11.40;99.90;;;;;;5016077;28;20054;-67
2023/11/14 12:25:13;;;;;;;13.90;3.67;;;11.40;99.90;;;;;;5016020;28;20081;-68
2023/11/14 12:27:40;;;;;;;20.20;3.97;;;11.40;99.90;;;;;;5015838;28;20049;-68
2023/11/14 12:30:07;;;;;;;19.10;3.75;;;11.40;99.90;;;;;;5015745;28;20042;-66
2023/11/14 12:32:35;;;;;;;16.23;3.28;;;11.30;99.90;;;;;;5015886;28;20042;-67
2023/11/14 12:35:03;;;;;;;23.52;4.78;;;11.30;99.90;;;;;;5016081;28;20049;-66